sensor_id;sensor_type;location;lat;lon;timestamp;pressure;altitude;pressure_sealevel;temperature;humidity
75923;BME280;64602;47.542;19.090;2024-02-28T00:03:09;100324.69;;;10.76;87.03
75923;BME280;64602;47.542;19.090;2024-02-28T00:08:11;100318.28;;;10.60;87.46
75923;BME280;64602;47.542;19.090;2024-02-28T00:13:14;100323.44;;;10.61;87.17
75923;BME280;64602;47.542;19.090;2024-02-28T00:18:17;100315.84;;;10.58;87.25
75923;BME280;64602;47.542;19.090;2024-02-28T00:23:19;100329.63;;;10.57;87.62
75923;BME280;64602;47.542;19.090;2024-02-28T00:28:22;100333.75;;;10.59;87.75
75923;BME280;64602;47.542;19.090;2024-02-28T00:33:24;100333.97;;;10.58;88.21
75923;BME280;64602;47.542;19.090;2024-02-28T00:38:26;100338.84;;;10.56;88.26
75923;BME280;64602;47.542;19.090;2024-02-28T00:43:29;100325.22;;;10.51;87.96
75923;BME280;64602;47.542;19.090;2024-02-28T00:48:31;100343.44;;;10.55;88.08
75923;BME280;64602;47.542;19.090;2024-02-28T00:53:34;100341.00;;;10.54;88.18
75923;BME280;64602;47.542;19.090;2024-02-28T00:58:36;100337.44;;;10.53;88.31
75923;BME280;64602;47.542;19.090;2024-02-28T01:03:38;100335.72;;;10.42;88.25
75923;BME280;64602;47.542;19.090;2024-02-28T01:08:41;100341.06;;;10.37;88.33
75923;BME280;64602;47.542;19.090;2024-02-28T01:13:43;100330.22;;;10.37;88.10
75923;BME280;64602;47.542;19.090;2024-02-28T01:18:46;100335.47;;;10.26;88.53
75923;BME280;64602;47.542;19.090;2024-02-28T01:23:48;100333.34;;;10.29;88.53
75923;BME280;64602;47.542;19.090;2024-02-28T01:28:51;100348.87;;;10.33;88.14
75923;BME280;64602;47.542;19.090;2024-02-28T01:33:53;100339.44;;;10.19;89.04
75923;BME280;64602;47.542;19.090;2024-02-28T01:38:55;100350.53;;;10.17;89.42
75923;BME280;64602;47.542;19.090;2024-02-28T01:43:58;100338.22;;;10.10;89.23
75923;BME280;64602;47.542;19.090;2024-02-28T01:49:00;100330.84;;;10.05;89.11
75923;BME280;64602;47.542;19.090;2024-02-28T01:54:03;100346.84;;;10.06;89.50
75923;BME280;64602;47.542;19.090;2024-02-28T01:59:05;100354.75;;;10.08;89.27
75923;BME280;64602;47.542;19.090;2024-02-28T02:04:09;100343.75;;;9.98;89.15
75923;BME280;64602;47.542;19.090;2024-02-28T02:09:11;100371.41;;;10.00;89.33
75923;BME280;64602;47.542;19.090;2024-02-28T02:14:13;100370.03;;;9.97;89.48
75923;BME280;64602;47.542;19.090;2024-02-28T02:19:16;100363.47;;;9.93;89.65
75923;BME280;64602;47.542;19.090;2024-02-28T02:24:18;100368.41;;;9.79;89.76
75923;BME280;64602;47.542;19.090;2024-02-28T02:29:20;100366.69;;;9.73;90.47
75923;BME280;64602;47.542;19.090;2024-02-28T02:34:22;100376.22;;;9.76;90.79
75923;BME280;64602;47.542;19.090;2024-02-28T02:39:25;100387.22;;;9.69;91.00
75923;BME280;64602;47.542;19.090;2024-02-28T02:44:27;100379.69;;;9.71;90.68
75923;BME280;64602;47.542;19.090;2024-02-28T02:49:29;100388.72;;;9.77;90.65
75923;BME280;64602;47.542;19.090;2024-02-28T02:54:31;100394.34;;;9.75;90.60
75923;BME280;64602;47.542;19.090;2024-02-28T02:59:33;100392.72;;;9.74;90.61
75923;BME280;64602;47.542;19.090;2024-02-28T03:04:35;100393.22;;;9.71;90.84
75923;BME280;64602;47.542;19.090;2024-02-28T03:09:37;100387.72;;;9.66;91.10
75923;BME280;64602;47.542;19.090;2024-02-28T03:14:40;100394.28;;;9.70;90.89
75923;BME280;64602;47.542;19.090;2024-02-28T03:19:42;100394.19;;;9.65;91.19
75923;BME280;64602;47.542;19.090;2024-02-28T03:24:44;100403.72;;;9.68;91.24
75923;BME280;64602;47.542;19.090;2024-02-28T03:29:46;100386.50;;;9.57;91.13
75923;BME280;64602;47.542;19.090;2024-02-28T03:34:49;100404.22;;;9.65;91.01
75923;BME280;64602;47.542;19.090;2024-02-28T03:39:51;100405.78;;;9.60;90.66
75923;BME280;64602;47.542;19.090;2024-02-28T03:44:53;100414.16;;;9.59;90.62
75923;BME280;64602;47.542;19.090;2024-02-28T03:49:56;100423.34;;;9.58;90.66
75923;BME280;64602;47.542;19.090;2024-02-28T03:54:59;100435.44;;;9.67;90.50
75923;BME280;64602;47.542;19.090;2024-02-28T04:00:02;100422.97;;;9.66;90.35
75923;BME280;64602;47.542;19.090;2024-02-28T04:05:05;100431.31;;;9.65;90.43
75923;BME280;64602;47.542;19.090;2024-02-28T04:10:07;100409.28;;;9.61;90.40
75923;BME280;64602;47.542;19.090;2024-02-28T04:15:11;100424.25;;;9.63;90.37
75923;BME280;64602;47.542;19.090;2024-02-28T04:20:17;100428.62;;;9.65;90.46
75923;BME280;64602;47.542;19.090;2024-02-28T04:25:19;100426.63;;;9.60;90.22
75923;BME280;64602;47.542;19.090;2024-02-28T04:30:21;100438.88;;;9.62;89.99
75923;BME280;64602;47.542;19.090;2024-02-28T04:35:23;100429.50;;;9.53;90.37
75923;BME280;64602;47.542;19.090;2024-02-28T04:40:25;100428.91;;;9.51;90.20
75923;BME280;64602;47.542;19.090;2024-02-28T04:45:28;100435.56;;;9.60;90.20
75923;BME280;64602;47.542;19.090;2024-02-28T04:50:30;100435.72;;;9.54;89.75
75923;BME280;64602;47.542;19.090;2024-02-28T04:55:32;100447.13;;;9.56;90.23
75923;BME280;64602;47.542;19.090;2024-02-28T05:00:35;100449.63;;;9.57;90.15
75923;BME280;64602;47.542;19.090;2024-02-28T05:05:37;100449.84;;;9.56;90.27
75923;BME280;64602;47.542;19.090;2024-02-28T05:10:39;100440.31;;;9.53;90.37
75923;BME280;64602;47.542;19.090;2024-02-28T05:15:42;100448.81;;;9.57;90.66
75923;BME280;64602;47.542;19.090;2024-02-28T05:20:44;100446.25;;;9.50;90.03
75923;BME280;64602;47.542;19.090;2024-02-28T05:25:46;100444.25;;;9.46;89.88
75923;BME280;64602;47.542;19.090;2024-02-28T05:30:48;100467.19;;;9.55;89.81
75923;BME280;64602;47.542;19.090;2024-02-28T05:35:52;100466.47;;;9.59;89.59
75923;BME280;64602;47.542;19.090;2024-02-28T05:40:54;100493.47;;;9.54;89.03
75923;BME280;64602;47.542;19.090;2024-02-28T05:45:56;100493.19;;;9.56;88.97
75923;BME280;64602;47.542;19.090;2024-02-28T05:51:00;100501.59;;;9.54;89.25
75923;BME280;64602;47.542;19.090;2024-02-28T05:56:03;100502.81;;;9.47;88.80
75923;BME280;64602;47.542;19.090;2024-02-28T06:01:05;100505.34;;;9.53;88.95
75923;BME280;64602;47.542;19.090;2024-02-28T06:06:09;100521.38;;;9.55;88.75
75923;BME280;64602;47.542;19.090;2024-02-28T06:11:11;100521.59;;;9.53;88.41
75923;BME280;64602;47.542;19.090;2024-02-28T06:16:14;100512.44;;;9.54;88.37
75923;BME280;64602;47.542;19.090;2024-02-28T06:21:17;100510.44;;;9.50;88.58
75923;BME280;64602;47.542;19.090;2024-02-28T06:26:19;100515.97;;;9.55;88.59
75923;BME280;64602;47.542;19.090;2024-02-28T06:31:22;100518.53;;;9.61;88.37
75923;BME280;64602;47.542;19.090;2024-02-28T06:36:25;100534.25;;;9.76;88.27
75923;BME280;64602;47.542;19.090;2024-02-28T06:41:27;100507.47;;;9.80;88.39
75923;BME280;64602;47.542;19.090;2024-02-28T06:46:29;100535.81;;;9.89;88.32
75923;BME280;64602;47.542;19.090;2024-02-28T06:51:31;100536.56;;;9.84;87.57
75923;BME280;64602;47.542;19.090;2024-02-28T06:56:33;100533.97;;;9.78;87.16
75923;BME280;64602;47.542;19.090;2024-02-28T07:01:35;100541.06;;;9.79;87.26
75923;BME280;64602;47.542;19.090;2024-02-28T07:06:37;100537.09;;;9.70;87.47
75923;BME280;64602;47.542;19.090;2024-02-28T07:11:40;100538.00;;;9.75;87.02
75923;BME280;64602;47.542;19.090;2024-02-28T07:16:42;100547.88;;;9.81;86.73
75923;BME280;64602;47.542;19.090;2024-02-28T07:21:45;100562.59;;;9.86;85.92
75923;BME280;64602;47.542;19.090;2024-02-28T07:26:47;100550.09;;;9.84;85.48
75923;BME280;64602;47.542;19.090;2024-02-28T07:31:51;100564.94;;;10.11;84.20
75923;BME280;64602;47.542;19.090;2024-02-28T07:36:53;100564.25;;;10.32;82.73
75923;BME280;64602;47.542;19.090;2024-02-28T07:41:55;100568.97;;;10.54;81.51
75923;BME280;64602;47.542;19.090;2024-02-28T07:46:58;100585.75;;;10.89;79.91
75923;BME280;64602;47.542;19.090;2024-02-28T07:52:00;100585.31;;;11.15;78.66
75923;BME280;64602;47.542;19.090;2024-02-28T07:57:03;100582.56;;;11.31;77.49
75923;BME280;64602;47.542;19.090;2024-02-28T08:02:05;100585.75;;;11.28;77.12
75923;BME280;64602;47.542;19.090;2024-02-28T08:07:07;100603.03;;;11.39;76.55
75923;BME280;64602;47.542;19.090;2024-02-28T08:12:10;100602.44;;;11.59;76.20
75923;BME280;64602;47.542;19.090;2024-02-28T08:17:12;100605.03;;;11.71;74.94
75923;BME280;64602;47.542;19.090;2024-02-28T08:22:15;100592.69;;;11.85;74.49
75923;BME280;64602;47.542;19.090;2024-02-28T08:27:18;100609.06;;;12.12;73.24
75923;BME280;64602;47.542;19.090;2024-02-28T08:32:20;100603.72;;;12.23;72.56
75923;BME280;64602;47.542;19.090;2024-02-28T08:37:22;100605.84;;;12.21;72.14
75923;BME280;64602;47.542;19.090;2024-02-28T08:42:25;100608.94;;;12.29;71.97
75923;BME280;64602;47.542;19.090;2024-02-28T08:47:28;100606.63;;;12.43;70.13
75923;BME280;64602;47.542;19.090;2024-02-28T08:52:31;100604.41;;;12.72;69.83
75923;BME280;64602;47.542;19.090;2024-02-28T08:57:33;100616.19;;;13.20;67.86
75923;BME280;64602;47.542;19.090;2024-02-28T09:02:36;100620.97;;;13.51;66.82
75923;BME280;64602;47.542;19.090;2024-02-28T09:07:39;100621.72;;;13.99;65.43
75923;BME280;64602;47.542;19.090;2024-02-28T09:12:41;100614.66;;;14.44;63.88
75923;BME280;64602;47.542;19.090;2024-02-28T09:17:43;100618.81;;;14.57;62.75
75923;BME280;64602;47.542;19.090;2024-02-28T09:22:46;100620.44;;;14.93;61.13
75923;BME280;64602;47.542;19.090;2024-02-28T09:27:48;100606.16;;;15.12;59.92
75923;BME280;64602;47.542;19.090;2024-02-28T09:32:50;100613.59;;;14.91;59.37
75923;BME280;64602;47.542;19.090;2024-02-28T09:37:52;100612.66;;;16.01;58.56
75923;BME280;64602;47.542;19.090;2024-02-28T09:43:00;100628.06;;;16.37;56.42
75923;BME280;64602;47.542;19.090;2024-02-28T09:48:04;100612.75;;;16.70;55.77
75923;BME280;64602;47.542;19.090;2024-02-28T09:53:06;100632.97;;;16.40;55.98
75923;BME280;64602;47.542;19.090;2024-02-28T09:58:12;100624.09;;;16.14;56.36
75923;BME280;64602;47.542;19.090;2024-02-28T10:03:18;100622.88;;;16.70;55.26
75923;BME280;64602;47.542;19.090;2024-02-28T10:08:21;100624.81;;;17.27;53.14
75923;BME280;64602;47.542;19.090;2024-02-28T10:13:23;100636.19;;;17.88;51.93
75923;BME280;64602;47.542;19.090;2024-02-28T10:18:26;100631.31;;;18.23;50.52
75923;BME280;64602;47.542;19.090;2024-02-28T10:23:28;100631.13;;;18.52;50.00
75923;BME280;64602;47.542;19.090;2024-02-28T10:28:30;100644.78;;;19.09;47.66
75923;BME280;64602;47.542;19.090;2024-02-28T10:33:33;100632.50;;;19.89;46.23
75923;BME280;64602;47.542;19.090;2024-02-28T10:38:38;100641.56;;;20.26;44.94
75923;BME280;64602;47.542;19.090;2024-02-28T10:43:40;100639.72;;;21.65;43.18
75923;BME280;64602;47.542;19.090;2024-02-28T10:48:43;100648.22;;;22.04;42.11
75923;BME280;64602;47.542;19.090;2024-02-28T10:53:49;100638.09;;;23.21;39.40
75923;BME280;64602;47.542;19.090;2024-02-28T10:58:57;100642.31;;;25.62;36.03
75923;BME280;64602;47.542;19.090;2024-02-28T11:04:01;100656.03;;;29.35;30.36
75923;BME280;64602;47.542;19.090;2024-02-28T11:09:04;100662.84;;;29.61;28.39
75923;BME280;64602;47.542;19.090;2024-02-28T11:14:14;100657.81;;;31.73;27.04
75923;BME280;64602;47.542;19.090;2024-02-28T11:19:21;100655.25;;;30.41;27.20
75923;BME280;64602;47.542;19.090;2024-02-28T11:24:24;100648.91;;;30.44;27.37
75923;BME280;64602;47.542;19.090;2024-02-28T11:29:30;100640.47;;;30.14;29.02
75923;BME280;64602;47.542;19.090;2024-02-28T11:34:34;100641.56;;;33.70;24.17
75923;BME280;64602;47.542;19.090;2024-02-28T11:39:36;100633.87;;;33.03;23.95
75923;BME280;64602;47.542;19.090;2024-02-28T11:44:39;100635.06;;;32.80;24.15
75923;BME280;64602;47.542;19.090;2024-02-28T11:49:42;100632.34;;;31.44;25.51
75923;BME280;64602;47.542;19.090;2024-02-28T11:54:44;100614.00;;;31.13;26.47
75923;BME280;64602;47.542;19.090;2024-02-28T11:59:48;100617.34;;;30.85;26.22
75923;BME280;64602;47.542;19.090;2024-02-28T12:04:51;100611.22;;;30.08;26.14
75923;BME280;64602;47.542;19.090;2024-02-28T12:09:54;100602.78;;;29.78;26.75
75923;BME280;64602;47.542;19.090;2024-02-28T12:14:59;100590.38;;;28.80;28.84
75923;BME280;64602;47.542;19.090;2024-02-28T12:20:02;100591.09;;;27.99;29.52
75923;BME280;64602;47.542;19.090;2024-02-28T12:25:05;100594.00;;;27.51;30.61
75923;BME280;64602;47.542;19.090;2024-02-28T12:30:09;100587.88;;;27.14;31.01
75923;BME280;64602;47.542;19.090;2024-02-28T12:35:11;100576.06;;;24.57;34.15
75923;BME280;64602;47.542;19.090;2024-02-28T12:40:13;100570.56;;;23.34;36.30
75923;BME280;64602;47.542;19.090;2024-02-28T12:45:17;100574.72;;;21.94;38.56
75923;BME280;64602;47.542;19.090;2024-02-28T12:50:20;100563.34;;;21.21;40.55
75923;BME280;64602;47.542;19.090;2024-02-28T12:55:23;100553.41;;;21.11;41.38
75923;BME280;64602;47.542;19.090;2024-02-28T13:00:25;100555.16;;;20.67;41.90
75923;BME280;64602;47.542;19.090;2024-02-28T13:05:28;100548.13;;;20.92;42.01
75923;BME280;64602;47.542;19.090;2024-02-28T13:10:33;100565.38;;;21.06;42.20
75923;BME280;64602;47.542;19.090;2024-02-28T13:15:40;100546.66;;;21.34;41.19
75923;BME280;64602;47.542;19.090;2024-02-28T13:20:42;100557.66;;;22.01;40.60
75923;BME280;64602;47.542;19.090;2024-02-28T13:25:44;100552.16;;;23.38;38.16
75923;BME280;64602;47.542;19.090;2024-02-28T13:30:46;100551.72;;;24.74;35.77
75923;BME280;64602;47.542;19.090;2024-02-28T13:35:48;100553.47;;;25.04;35.36
75923;BME280;64602;47.542;19.090;2024-02-28T13:40:51;100546.38;;;24.36;36.28
75923;BME280;64602;47.542;19.090;2024-02-28T13:45:53;100540.88;;;23.73;38.64
75923;BME280;64602;47.542;19.090;2024-02-28T13:50:57;100538.03;;;23.31;39.08
75923;BME280;64602;47.542;19.090;2024-02-28T13:56:00;100535.37;;;23.05;39.09
75923;BME280;64602;47.542;19.090;2024-02-28T14:01:03;100544.97;;;23.67;37.79
75923;BME280;64602;47.542;19.090;2024-02-28T14:06:05;100524.69;;;23.24;38.21
75923;BME280;64602;47.542;19.090;2024-02-28T14:11:08;100525.31;;;23.30;38.08
75923;BME280;64602;47.542;19.090;2024-02-28T14:16:10;100528.31;;;23.16;37.89
75923;BME280;64602;47.542;19.090;2024-02-28T14:21:12;100539.47;;;22.43;39.62
75923;BME280;64602;47.542;19.090;2024-02-28T14:26:15;100540.91;;;21.71;41.39
75923;BME280;64602;47.542;19.090;2024-02-28T14:31:17;100533.34;;;21.37;42.03
75923;BME280;64602;47.542;19.090;2024-02-28T14:36:20;100528.25;;;21.21;42.88
75923;BME280;64602;47.542;19.090;2024-02-28T14:41:23;100537.66;;;21.86;41.26
75923;BME280;64602;47.542;19.090;2024-02-28T14:46:25;100533.91;;;23.37;39.00
75923;BME280;64602;47.542;19.090;2024-02-28T14:51:27;100552.09;;;23.77;38.61
75923;BME280;64602;47.542;19.090;2024-02-28T14:56:31;100550.53;;;23.88;38.47
75923;BME280;64602;47.542;19.090;2024-02-28T15:01:34;100542.72;;;24.44;37.27
75923;BME280;64602;47.542;19.090;2024-02-28T15:06:36;100554.31;;;24.59;37.15
75923;BME280;64602;47.542;19.090;2024-02-28T15:11:38;100546.16;;;24.08;37.88
75923;BME280;64602;47.542;19.090;2024-02-28T15:16:41;100558.31;;;23.06;40.06
75923;BME280;64602;47.542;19.090;2024-02-28T15:21:43;100548.56;;;22.44;41.01
75923;BME280;64602;47.542;19.090;2024-02-28T15:26:45;100555.22;;;21.82;42.25
75923;BME280;64602;47.542;19.090;2024-02-28T15:31:48;100554.53;;;21.10;44.10
75923;BME280;64602;47.542;19.090;2024-02-28T15:36:50;100550.38;;;19.91;46.47
75923;BME280;64602;47.542;19.090;2024-02-28T15:41:52;100548.38;;;19.00;49.07
75923;BME280;64602;47.542;19.090;2024-02-28T15:46:54;100562.94;;;18.21;51.05
75923;BME280;64602;47.542;19.090;2024-02-28T15:51:57;100562.94;;;17.40;53.74
75923;BME280;64602;47.542;19.090;2024-02-28T15:57:00;100560.50;;;16.91;55.19
75923;BME280;64602;47.542;19.090;2024-02-28T16:02:03;100571.19;;;16.58;56.09
75923;BME280;64602;47.542;19.090;2024-02-28T16:07:05;100570.91;;;16.25;57.22
75923;BME280;64602;47.542;19.090;2024-02-28T16:12:09;100580.31;;;16.09;57.82
75923;BME280;64602;47.542;19.090;2024-02-28T16:17:11;100584.84;;;15.84;58.67
75923;BME280;64602;47.542;19.090;2024-02-28T16:22:18;100586.34;;;15.61;59.72
75923;BME280;64602;47.542;19.090;2024-02-28T16:27:20;100588.88;;;15.37;60.20
75923;BME280;64602;47.542;19.090;2024-02-28T16:32:22;100592.22;;;15.13;61.30
75923;BME280;64602;47.542;19.090;2024-02-28T16:37:24;100607.84;;;14.87;63.24
75923;BME280;64602;47.542;19.090;2024-02-28T16:42:26;100607.91;;;14.57;64.29
75923;BME280;64602;47.542;19.090;2024-02-28T16:47:29;100617.41;;;14.33;65.12
75923;BME280;64602;47.542;19.090;2024-02-28T16:52:32;100621.72;;;14.19;66.36
75923;BME280;64602;47.542;19.090;2024-02-28T16:57:34;100627.72;;;14.01;66.91
75923;BME280;64602;47.542;19.090;2024-02-28T17:02:42;100633.41;;;13.84;67.68
75923;BME280;64602;47.542;19.090;2024-02-28T17:07:50;100635.22;;;13.68;68.41
75923;BME280;64602;47.542;19.090;2024-02-28T17:12:53;100631.38;;;13.59;68.21
75923;BME280;64602;47.542;19.090;2024-02-28T17:17:55;100641.97;;;13.50;68.89
75923;BME280;64602;47.542;19.090;2024-02-28T17:22:57;100638.91;;;13.36;69.61
75923;BME280;64602;47.542;19.090;2024-02-28T17:28:00;100645.16;;;13.37;69.68
75923;BME280;64602;47.542;19.090;2024-02-28T17:33:02;100650.53;;;13.26;70.19
75923;BME280;64602;47.542;19.090;2024-02-28T17:38:04;100648.78;;;13.10;70.65
75923;BME280;64602;47.542;19.090;2024-02-28T17:43:06;100643.81;;;12.97;71.66
75923;BME280;64602;47.542;19.090;2024-02-28T17:48:08;100657.66;;;12.90;72.29
75923;BME280;64602;47.542;19.090;2024-02-28T17:53:11;100661.13;;;12.80;72.45
75923;BME280;64602;47.542;19.090;2024-02-28T17:58:13;100655.84;;;12.69;73.47
75923;BME280;64602;47.542;19.090;2024-02-28T18:03:15;100665.31;;;12.61;74.16
75923;BME280;64602;47.542;19.090;2024-02-28T18:08:17;100658.44;;;12.53;74.23
75923;BME280;64602;47.542;19.090;2024-02-28T18:13:20;100664.28;;;12.40;74.81
75923;BME280;64602;47.542;19.090;2024-02-28T18:18:23;100656.06;;;12.35;74.56
75923;BME280;64602;47.542;19.090;2024-02-28T18:23:26;100654.16;;;12.35;74.47
75923;BME280;64602;47.542;19.090;2024-02-28T18:28:35;100656.03;;;12.30;74.61
75923;BME280;64602;47.542;19.090;2024-02-28T18:33:40;100652.53;;;12.07;75.77
75923;BME280;64602;47.542;19.090;2024-02-28T18:38:42;100658.44;;;11.99;76.11
75923;BME280;64602;47.542;19.090;2024-02-28T18:43:45;100676.97;;;12.02;76.26
75923;BME280;64602;47.542;19.090;2024-02-28T18:48:48;100681.78;;;11.95;76.46
75923;BME280;64602;47.542;19.090;2024-02-28T18:53:52;100681.34;;;11.86;77.00
75923;BME280;64602;47.542;19.090;2024-02-28T18:58:55;100684.78;;;11.76;78.12
75923;BME280;64602;47.542;19.090;2024-02-28T19:03:57;100684.41;;;11.68;78.17
75923;BME280;64602;47.542;19.090;2024-02-28T19:08:59;100679.97;;;11.62;78.29
75923;BME280;64602;47.542;19.090;2024-02-28T19:14:01;100685.03;;;11.53;78.60
75923;BME280;64602;47.542;19.090;2024-02-28T19:19:03;100692.41;;;11.58;78.77
75923;BME280;64602;47.542;19.090;2024-02-28T19:24:06;100697.69;;;11.47;79.17
75923;BME280;64602;47.542;19.090;2024-02-28T19:29:08;100687.84;;;11.41;79.65
75923;BME280;64602;47.542;19.090;2024-02-28T19:34:11;100695.25;;;11.46;79.37
75923;BME280;64602;47.542;19.090;2024-02-28T19:39:13;100704.16;;;11.41;79.68
75923;BME280;64602;47.542;19.090;2024-02-28T19:44:15;100701.44;;;11.41;79.73
75923;BME280;64602;47.542;19.090;2024-02-28T19:49:17;100715.94;;;11.30;80.49
75923;BME280;64602;47.542;19.090;2024-02-28T19:54:20;100716.19;;;11.11;81.77
75923;BME280;64602;47.542;19.090;2024-02-28T19:59:22;100702.88;;;11.10;81.35
75923;BME280;64602;47.542;19.090;2024-02-28T20:04:24;100725.41;;;11.10;81.75
75923;BME280;64602;47.542;19.090;2024-02-28T20:09:27;100721.87;;;11.10;81.87
75923;BME280;64602;47.542;19.090;2024-02-28T20:14:29;100712.66;;;10.94;82.33
75923;BME280;64602;47.542;19.090;2024-02-28T20:19:32;100729.19;;;10.93;82.90
75923;BME280;64602;47.542;19.090;2024-02-28T20:24:34;100732.00;;;10.81;83.27
75923;BME280;64602;47.542;19.090;2024-02-28T20:29:37;100723.25;;;10.79;83.31
75923;BME280;64602;47.542;19.090;2024-02-28T20:34:39;100724.72;;;10.69;83.38
75923;BME280;64602;47.542;19.090;2024-02-28T20:39:41;100735.50;;;10.64;84.07
75923;BME280;64602;47.542;19.090;2024-02-28T20:44:43;100729.06;;;10.54;84.20
75923;BME280;64602;47.542;19.090;2024-02-28T20:49:45;100730.38;;;10.51;84.06
75923;BME280;64602;47.542;19.090;2024-02-28T20:54:47;100728.03;;;10.43;84.46
75923;BME280;64602;47.542;19.090;2024-02-28T20:59:49;100743.50;;;10.42;84.88
75923;BME280;64602;47.542;19.090;2024-02-28T21:04:52;100728.56;;;10.28;85.35
75923;BME280;64602;47.542;19.090;2024-02-28T21:09:54;100741.28;;;10.27;85.20
75923;BME280;64602;47.542;19.090;2024-02-28T21:14:56;100744.63;;;10.18;85.85
75923;BME280;64602;47.542;19.090;2024-02-28T21:20:03;100731.56;;;10.03;86.00
75923;BME280;64602;47.542;19.090;2024-02-28T21:25:07;100743.47;;;10.02;86.37
75923;BME280;64602;47.542;19.090;2024-02-28T21:30:10;100747.97;;;9.96;86.48
75923;BME280;64602;47.542;19.090;2024-02-28T21:35:13;100745.53;;;9.83;86.70
75923;BME280;64602;47.542;19.090;2024-02-28T21:40:17;100744.34;;;9.79;87.00
75923;BME280;64602;47.542;19.090;2024-02-28T21:45:21;100756.94;;;9.85;87.02
75923;BME280;64602;47.542;19.090;2024-02-28T21:50:23;100754.84;;;9.75;87.26
75923;BME280;64602;47.542;19.090;2024-02-28T21:55:25;100742.97;;;9.65;87.89
75923;BME280;64602;47.542;19.090;2024-02-28T22:00:28;100736.47;;;9.54;88.01
75923;BME280;64602;47.542;19.090;2024-02-28T22:05:30;100742.25;;;9.57;88.14
75923;BME280;64602;47.542;19.090;2024-02-28T22:10:32;100750.50;;;9.51;88.53
75923;BME280;64602;47.542;19.090;2024-02-28T22:15:35;100727.41;;;9.36;88.99
75923;BME280;64602;47.542;19.090;2024-02-28T22:20:37;100740.34;;;9.34;89.08
75923;BME280;64602;47.542;19.090;2024-02-28T22:25:40;100736.50;;;9.30;89.15
75923;BME280;64602;47.542;19.090;2024-02-28T22:30:42;100751.19;;;9.34;89.52
75923;BME280;64602;47.542;19.090;2024-02-28T22:35:44;100752.97;;;9.40;89.61
75923;BME280;64602;47.542;19.090;2024-02-28T22:40:47;100757.47;;;9.35;89.42
75923;BME280;64602;47.542;19.090;2024-02-28T22:45:50;100745.66;;;9.29;89.18
75923;BME280;64602;47.542;19.090;2024-02-28T22:50:52;100764.75;;;9.23;89.51
75923;BME280;64602;47.542;19.090;2024-02-28T22:55:55;100734.44;;;9.02;90.05
75923;BME280;64602;47.542;19.090;2024-02-28T23:00:58;100749.78;;;9.08;90.43
75923;BME280;64602;47.542;19.090;2024-02-28T23:06:00;100742.47;;;9.09;89.97
75923;BME280;64602;47.542;19.090;2024-02-28T23:11:02;100746.47;;;9.06;89.88
75923;BME280;64602;47.542;19.090;2024-02-28T23:16:05;100739.63;;;9.04;90.22
75923;BME280;64602;47.542;19.090;2024-02-28T23:21:07;100725.22;;;8.80;90.95
75923;BME280;64602;47.542;19.090;2024-02-28T23:26:09;100742.06;;;8.82;90.94
75923;BME280;64602;47.542;19.090;2024-02-28T23:31:11;100743.78;;;8.76;91.39
75923;BME280;64602;47.542;19.090;2024-02-28T23:36:13;100748.78;;;8.79;91.29
75923;BME280;64602;47.542;19.090;2024-02-28T23:41:16;100744.66;;;8.76;91.45
75923;BME280;64602;47.542;19.090;2024-02-28T23:46:19;100745.78;;;8.69;91.65
75923;BME280;64602;47.542;19.090;2024-02-28T23:51:21;100752.47;;;8.66;91.56
75923;BME280;64602;47.542;19.090;2024-02-28T23:56:23;100746.19;;;8.54;91.86
